sensor_id;sensor_type;location;lat;lon;timestamp;temperature;humidity
70074;DHT22;57445;51.058;3.698;2022-08-20T00:00:11;20.00;90.90
70074;DHT22;57445;51.058;3.698;2022-08-20T00:02:46;20.00;91.00
70074;DHT22;57445;51.058;3.698;2022-08-20T00:05:21;20.00;91.00
70074;DHT22;57445;51.058;3.698;2022-08-20T00:07:49;19.80;91.00
70074;DHT22;57445;51.058;3.698;2022-08-20T00:10:18;19.80;91.10
70074;DHT22;57445;51.058;3.698;2022-08-20T00:12:47;19.70;91.30
70074;DHT22;57445;51.058;3.698;2022-08-20T00:15:23;19.60;91.60
70074;DHT22;57445;51.058;3.698;2022-08-20T00:17:51;19.60;91.80
70074;DHT22;57445;51.058;3.698;2022-08-20T00:20:23;20.00;91.00
70074;DHT22;57445;51.058;3.698;2022-08-20T00:22:52;19.70;91.20
70074;DHT22;57445;51.058;3.698;2022-08-20T00:25:20;19.40;91.80
70074;DHT22;57445;51.058;3.698;2022-08-20T00:27:52;19.40;92.00
70074;DHT22;57445;51.058;3.698;2022-08-20T00:30:25;19.40;91.90
70074;DHT22;57445;51.058;3.698;2022-08-20T00:32:55;19.50;91.80
70074;DHT22;57445;51.058;3.698;2022-08-20T00:35:27;19.50;91.70
70074;DHT22;57445;51.058;3.698;2022-08-20T00:38:00;19.60;91.60
70074;DHT22;57445;51.058;3.698;2022-08-20T00:40:32;19.70;91.70
70074;DHT22;57445;51.058;3.698;2022-08-20T00:43:03;19.50;91.60
70074;DHT22;57445;51.058;3.698;2022-08-20T00:45:36;19.40;91.70
70074;DHT22;57445;51.058;3.698;2022-08-20T00:48:04;19.40;91.70
70074;DHT22;57445;51.058;3.698;2022-08-20T00:50:35;19.40;91.80
70074;DHT22;57445;51.058;3.698;2022-08-20T00:53:06;19.50;91.60
70074;DHT22;57445;51.058;3.698;2022-08-20T00:55:38;19.50;91.70
70074;DHT22;57445;51.058;3.698;2022-08-20T00:58:11;19.50;91.90
70074;DHT22;57445;51.058;3.698;2022-08-20T01:00:40;19.50;91.70
70074;DHT22;57445;51.058;3.698;2022-08-20T01:03:17;19.70;91.30
70074;DHT22;57445;51.058;3.698;2022-08-20T01:05:49;19.60;91.20
70074;DHT22;57445;51.058;3.698;2022-08-20T01:08:19;19.50;91.40
70074;DHT22;57445;51.058;3.698;2022-08-20T01:10:48;19.50;91.60
70074;DHT22;57445;51.058;3.698;2022-08-20T01:13:23;19.60;91.40
70074;DHT22;57445;51.058;3.698;2022-08-20T01:15:59;19.70;91.20
70074;DHT22;57445;51.058;3.698;2022-08-20T01:18:29;19.90;90.60
70074;DHT22;57445;51.058;3.698;2022-08-20T01:21:01;19.80;90.80
70074;DHT22;57445;51.058;3.698;2022-08-20T01:23:36;19.70;91.10
70074;DHT22;57445;51.058;3.698;2022-08-20T01:26:13;19.60;91.30
70074;DHT22;57445;51.058;3.698;2022-08-20T01:28:46;19.60;91.10
70074;DHT22;57445;51.058;3.698;2022-08-20T01:31:18;19.80;91.00
70074;DHT22;57445;51.058;3.698;2022-08-20T01:33:47;19.40;91.30
70074;DHT22;57445;51.058;3.698;2022-08-20T01:36:23;19.10;92.00
70074;DHT22;57445;51.058;3.698;2022-08-20T01:38:56;18.90;92.40
70074;DHT22;57445;51.058;3.698;2022-08-20T01:41:58;19.00;92.30
70074;DHT22;57445;51.058;3.698;2022-08-20T01:44:26;19.00;92.10
70074;DHT22;57445;51.058;3.698;2022-08-20T01:46:55;18.90;92.30
70074;DHT22;57445;51.058;3.698;2022-08-20T01:49:25;19.00;92.20
70074;DHT22;57445;51.058;3.698;2022-08-20T01:52:01;18.90;92.30
70074;DHT22;57445;51.058;3.698;2022-08-20T01:54:33;18.80;92.50
70074;DHT22;57445;51.058;3.698;2022-08-20T01:57:05;18.80;92.40
70074;DHT22;57445;51.058;3.698;2022-08-20T01:59:42;18.90;92.50
70074;DHT22;57445;51.058;3.698;2022-08-20T02:02:11;18.80;92.50
70074;DHT22;57445;51.058;3.698;2022-08-20T02:04:39;18.80;92.40
70074;DHT22;57445;51.058;3.698;2022-08-20T02:07:13;18.50;92.80
70074;DHT22;57445;51.058;3.698;2022-08-20T02:09:46;18.70;92.60
70074;DHT22;57445;51.058;3.698;2022-08-20T02:12:16;18.90;92.20
70074;DHT22;57445;51.058;3.698;2022-08-20T02:14:45;18.90;92.20
70074;DHT22;57445;51.058;3.698;2022-08-20T02:17:14;18.70;92.30
70074;DHT22;57445;51.058;3.698;2022-08-20T02:19:46;18.60;92.60
70074;DHT22;57445;51.058;3.698;2022-08-20T02:22:18;18.60;92.70
70074;DHT22;57445;51.058;3.698;2022-08-20T02:24:46;18.50;92.70
70074;DHT22;57445;51.058;3.698;2022-08-20T02:27:15;18.50;92.70
70074;DHT22;57445;51.058;3.698;2022-08-20T02:29:44;18.60;92.80
70074;DHT22;57445;51.058;3.698;2022-08-20T02:32:18;18.50;92.80
70074;DHT22;57445;51.058;3.698;2022-08-20T02:34:45;18.50;92.60
70074;DHT22;57445;51.058;3.698;2022-08-20T02:37:19;18.40;92.90
70074;DHT22;57445;51.058;3.698;2022-08-20T02:39:46;18.30;93.00
70074;DHT22;57445;51.058;3.698;2022-08-20T02:42:20;18.20;93.20
70074;DHT22;57445;51.058;3.698;2022-08-20T02:44:55;18.30;93.10
70074;DHT22;57445;51.058;3.698;2022-08-20T02:47:28;18.40;93.20
70074;DHT22;57445;51.058;3.698;2022-08-20T02:49:56;18.40;92.80
70074;DHT22;57445;51.058;3.698;2022-08-20T02:52:29;18.50;92.50
70074;DHT22;57445;51.058;3.698;2022-08-20T02:55:01;18.50;92.50
70074;DHT22;57445;51.058;3.698;2022-08-20T02:57:35;18.30;92.80
70074;DHT22;57445;51.058;3.698;2022-08-20T03:00:12;18.20;93.10
70074;DHT22;57445;51.058;3.698;2022-08-20T03:02:41;18.10;93.40
70074;DHT22;57445;51.058;3.698;2022-08-20T03:05:09;18.10;93.40
70074;DHT22;57445;51.058;3.698;2022-08-20T03:07:42;18.00;93.60
70074;DHT22;57445;51.058;3.698;2022-08-20T03:10:10;17.80;93.80
70074;DHT22;57445;51.058;3.698;2022-08-20T03:12:46;17.80;93.90
70074;DHT22;57445;51.058;3.698;2022-08-20T03:15:13;17.80;93.80
70074;DHT22;57445;51.058;3.698;2022-08-20T03:17:41;18.00;93.60
70074;DHT22;57445;51.058;3.698;2022-08-20T03:20:17;18.20;93.10
70074;DHT22;57445;51.058;3.698;2022-08-20T03:22:45;18.40;92.60
70074;DHT22;57445;51.058;3.698;2022-08-20T03:25:14;18.50;92.10
70074;DHT22;57445;51.058;3.698;2022-08-20T03:27:42;18.60;92.10
70074;DHT22;57445;51.058;3.698;2022-08-20T03:30:13;18.50;92.20
70074;DHT22;57445;51.058;3.698;2022-08-20T03:32:42;18.40;92.50
70074;DHT22;57445;51.058;3.698;2022-08-20T03:35:12;18.30;92.70
70074;DHT22;57445;51.058;3.698;2022-08-20T03:37:40;18.20;92.90
70074;DHT22;57445;51.058;3.698;2022-08-20T03:40:11;18.20;93.00
70074;DHT22;57445;51.058;3.698;2022-08-20T03:42:40;18.00;93.10
70074;DHT22;57445;51.058;3.698;2022-08-20T03:45:14;17.80;93.50
70074;DHT22;57445;51.058;3.698;2022-08-20T03:47:48;17.80;93.70
70074;DHT22;57445;51.058;3.698;2022-08-20T03:50:18;18.00;93.40
70074;DHT22;57445;51.058;3.698;2022-08-20T03:52:46;18.20;92.80
70074;DHT22;57445;51.058;3.698;2022-08-20T03:55:14;18.30;92.50
70074;DHT22;57445;51.058;3.698;2022-08-20T03:57:48;18.30;92.70
70074;DHT22;57445;51.058;3.698;2022-08-20T04:00:22;18.00;93.00
70074;DHT22;57445;51.058;3.698;2022-08-20T04:02:52;17.80;93.40
70074;DHT22;57445;51.058;3.698;2022-08-20T04:05:23;17.70;93.70
70074;DHT22;57445;51.058;3.698;2022-08-20T04:07:50;17.90;93.90
70074;DHT22;57445;51.058;3.698;2022-08-20T04:10:24;17.70;93.90
70074;DHT22;57445;51.058;3.698;2022-08-20T04:12:56;17.70;93.80
70074;DHT22;57445;51.058;3.698;2022-08-20T04:15:26;17.90;93.50
70074;DHT22;57445;51.058;3.698;2022-08-20T04:17:53;17.90;93.30
70074;DHT22;57445;51.058;3.698;2022-08-20T04:20:26;17.80;93.30
70074;DHT22;57445;51.058;3.698;2022-08-20T04:22:55;17.70;93.60
70074;DHT22;57445;51.058;3.698;2022-08-20T04:25:23;17.60;93.80
70074;DHT22;57445;51.058;3.698;2022-08-20T04:27:51;17.50;93.80
70074;DHT22;57445;51.058;3.698;2022-08-20T04:30:19;17.50;94.00
70074;DHT22;57445;51.058;3.698;2022-08-20T04:32:49;17.60;94.00
70074;DHT22;57445;51.058;3.698;2022-08-20T04:35:17;17.40;94.00
70074;DHT22;57445;51.058;3.698;2022-08-20T04:37:46;17.50;93.80
70074;DHT22;57445;51.058;3.698;2022-08-20T04:40:17;17.60;93.70
70074;DHT22;57445;51.058;3.698;2022-08-20T04:43:03;17.60;93.90
70074;DHT22;57445;51.058;3.698;2022-08-20T04:45:35;17.60;93.70
70074;DHT22;57445;51.058;3.698;2022-08-20T04:48:09;17.90;93.50
70074;DHT22;57445;51.058;3.698;2022-08-20T04:50:43;17.70;93.20
70074;DHT22;57445;51.058;3.698;2022-08-20T04:53:14;17.70;93.40
70074;DHT22;57445;51.058;3.698;2022-08-20T04:55:43;17.60;93.40
70074;DHT22;57445;51.058;3.698;2022-08-20T04:58:13;17.40;93.70
70074;DHT22;57445;51.058;3.698;2022-08-20T05:00:48;17.40;93.90
70074;DHT22;57445;51.058;3.698;2022-08-20T05:03:18;17.20;94.10
70074;DHT22;57445;51.058;3.698;2022-08-20T05:05:46;17.30;94.10
70074;DHT22;57445;51.058;3.698;2022-08-20T05:08:16;17.40;93.90
70074;DHT22;57445;51.058;3.698;2022-08-20T05:10:44;17.40;93.70
70074;DHT22;57445;51.058;3.698;2022-08-20T05:13:17;17.40;93.80
70074;DHT22;57445;51.058;3.698;2022-08-20T05:15:45;17.30;93.90
70074;DHT22;57445;51.058;3.698;2022-08-20T05:18:16;17.30;93.90
70074;DHT22;57445;51.058;3.698;2022-08-20T05:20:50;17.30;93.90
70074;DHT22;57445;51.058;3.698;2022-08-20T05:23:19;17.50;93.70
70074;DHT22;57445;51.058;3.698;2022-08-20T05:25:49;17.60;93.50
70074;DHT22;57445;51.058;3.698;2022-08-20T05:28:20;17.80;93.30
70074;DHT22;57445;51.058;3.698;2022-08-20T05:30:53;18.00;92.70
70074;DHT22;57445;51.058;3.698;2022-08-20T05:33:28;18.20;92.60
70074;DHT22;57445;51.058;3.698;2022-08-20T05:35:57;18.10;92.70
70074;DHT22;57445;51.058;3.698;2022-08-20T05:38:30;18.10;92.70
70074;DHT22;57445;51.058;3.698;2022-08-20T05:40:58;18.10;92.60
70074;DHT22;57445;51.058;3.698;2022-08-20T05:43:31;18.00;92.60
70074;DHT22;57445;51.058;3.698;2022-08-20T05:46:04;18.10;92.80
70074;DHT22;57445;51.058;3.698;2022-08-20T05:48:36;18.20;92.50
70074;DHT22;57445;51.058;3.698;2022-08-20T05:51:10;18.10;92.60
70074;DHT22;57445;51.058;3.698;2022-08-20T05:53:37;18.10;92.80
70074;DHT22;57445;51.058;3.698;2022-08-20T05:56:05;18.50;92.90
70074;DHT22;57445;51.058;3.698;2022-08-20T05:58:40;19.20;91.50
70074;DHT22;57445;51.058;3.698;2022-08-20T06:01:12;19.90;90.00
70074;DHT22;57445;51.058;3.698;2022-08-20T06:03:47;20.50;88.00
70074;DHT22;57445;51.058;3.698;2022-08-20T06:06:34;20.90;85.90
70074;DHT22;57445;51.058;3.698;2022-08-20T06:09:02;21.30;85.30
70074;DHT22;57445;51.058;3.698;2022-08-20T06:11:34;21.80;83.40
70074;DHT22;57445;51.058;3.698;2022-08-20T06:14:02;22.10;82.10
70074;DHT22;57445;51.058;3.698;2022-08-20T06:16:35;22.40;80.80
70074;DHT22;57445;51.058;3.698;2022-08-20T06:19:08;22.40;80.00
70074;DHT22;57445;51.058;3.698;2022-08-20T06:21:38;22.90;78.60
70074;DHT22;57445;51.058;3.698;2022-08-20T06:24:06;23.00;78.50
70074;DHT22;57445;51.058;3.698;2022-08-20T06:26:34;22.70;79.10
70074;DHT22;57445;51.058;3.698;2022-08-20T06:29:07;23.20;78.00
70074;DHT22;57445;51.058;3.698;2022-08-20T06:31:35;23.60;76.90
70074;DHT22;57445;51.058;3.698;2022-08-20T06:34:06;23.90;76.00
70074;DHT22;57445;51.058;3.698;2022-08-20T06:36:34;24.00;75.30
70074;DHT22;57445;51.058;3.698;2022-08-20T06:39:08;23.70;76.40
70074;DHT22;57445;51.058;3.698;2022-08-20T06:41:41;24.00;75.60
70074;DHT22;57445;51.058;3.698;2022-08-20T06:44:09;24.40;73.90
70074;DHT22;57445;51.058;3.698;2022-08-20T06:46:37;24.30;74.30
70074;DHT22;57445;51.058;3.698;2022-08-20T06:49:06;24.20;75.80
70074;DHT22;57445;51.058;3.698;2022-08-20T06:51:35;24.20;74.30
70074;DHT22;57445;51.058;3.698;2022-08-20T06:54:12;23.30;77.00
70074;DHT22;57445;51.058;3.698;2022-08-20T06:56:40;22.70;78.70
70074;DHT22;57445;51.058;3.698;2022-08-20T06:59:09;22.20;80.50
70074;DHT22;57445;51.058;3.698;2022-08-20T07:01:41;21.70;82.40
70074;DHT22;57445;51.058;3.698;2022-08-20T07:04:09;21.20;84.10
70074;DHT22;57445;51.058;3.698;2022-08-20T07:06:36;21.00;85.70
70074;DHT22;57445;51.058;3.698;2022-08-20T07:09:10;21.30;85.00
70074;DHT22;57445;51.058;3.698;2022-08-20T07:11:42;20.70;86.20
70074;DHT22;57445;51.058;3.698;2022-08-20T07:14:10;20.90;85.90
70074;DHT22;57445;51.058;3.698;2022-08-20T07:16:38;20.50;86.80
70074;DHT22;57445;51.058;3.698;2022-08-20T07:19:11;20.30;88.20
70074;DHT22;57445;51.058;3.698;2022-08-20T07:21:39;20.40;87.60
70074;DHT22;57445;51.058;3.698;2022-08-20T07:24:07;20.50;87.00
70074;DHT22;57445;51.058;3.698;2022-08-20T07:26:37;20.30;88.00
70074;DHT22;57445;51.058;3.698;2022-08-20T07:29:05;20.10;89.50
70074;DHT22;57445;51.058;3.698;2022-08-20T07:31:33;19.90;90.10
70074;DHT22;57445;51.058;3.698;2022-08-20T07:34:22;19.90;90.30
70074;DHT22;57445;51.058;3.698;2022-08-20T07:36:57;20.00;89.60
70074;DHT22;57445;51.058;3.698;2022-08-20T07:39:26;20.30;88.90
70074;DHT22;57445;51.058;3.698;2022-08-20T07:41:55;20.30;89.20
70074;DHT22;57445;51.058;3.698;2022-08-20T07:44:29;20.40;89.80
70074;DHT22;57445;51.058;3.698;2022-08-20T07:46:57;20.20;89.80
70074;DHT22;57445;51.058;3.698;2022-08-20T07:49:25;20.20;90.10
70074;DHT22;57445;51.058;3.698;2022-08-20T07:51:53;20.50;88.70
70074;DHT22;57445;51.058;3.698;2022-08-20T07:54:21;20.60;88.80
70074;DHT22;57445;51.058;3.698;2022-08-20T07:56:49;20.30;89.40
70074;DHT22;57445;51.058;3.698;2022-08-20T07:59:19;20.30;89.80
70074;DHT22;57445;51.058;3.698;2022-08-20T08:01:53;20.40;89.40
70074;DHT22;57445;51.058;3.698;2022-08-20T08:04:21;20.40;89.90
70074;DHT22;57445;51.058;3.698;2022-08-20T08:06:49;20.60;89.20
70074;DHT22;57445;51.058;3.698;2022-08-20T08:09:17;20.90;88.20
70074;DHT22;57445;51.058;3.698;2022-08-20T08:11:47;21.00;87.80
70074;DHT22;57445;51.058;3.698;2022-08-20T08:14:17;21.30;86.50
70074;DHT22;57445;51.058;3.698;2022-08-20T08:16:50;21.00;86.70
70074;DHT22;57445;51.058;3.698;2022-08-20T08:19:24;20.80;87.40
70074;DHT22;57445;51.058;3.698;2022-08-20T08:21:54;20.90;84.30
70074;DHT22;57445;51.058;3.698;2022-08-20T08:24:27;21.10;84.90
70074;DHT22;57445;51.058;3.698;2022-08-20T08:26:54;21.40;84.50
70074;DHT22;57445;51.058;3.698;2022-08-20T08:29:22;21.60;82.00
70074;DHT22;57445;51.058;3.698;2022-08-20T08:31:51;21.60;81.70
70074;DHT22;57445;51.058;3.698;2022-08-20T08:34:24;21.70;81.00
70074;DHT22;57445;51.058;3.698;2022-08-20T08:36:51;21.40;83.80
70074;DHT22;57445;51.058;3.698;2022-08-20T08:39:24;21.40;82.60
70074;DHT22;57445;51.058;3.698;2022-08-20T08:41:52;21.50;82.50
70074;DHT22;57445;51.058;3.698;2022-08-20T08:44:25;21.50;81.10
70074;DHT22;57445;51.058;3.698;2022-08-20T08:47:02;21.50;76.90
70074;DHT22;57445;51.058;3.698;2022-08-20T08:49:44;21.50;77.60
70074;DHT22;57445;51.058;3.698;2022-08-20T08:52:20;21.40;78.00
70074;DHT22;57445;51.058;3.698;2022-08-20T08:54:56;21.40;76.30
70074;DHT22;57445;51.058;3.698;2022-08-20T08:57:24;21.50;76.80
70074;DHT22;57445;51.058;3.698;2022-08-20T08:59:59;21.50;77.40
70074;DHT22;57445;51.058;3.698;2022-08-20T09:02:34;21.80;76.40
70074;DHT22;57445;51.058;3.698;2022-08-20T09:05:12;22.10;74.50
70074;DHT22;57445;51.058;3.698;2022-08-20T09:07:45;22.10;75.80
70074;DHT22;57445;51.058;3.698;2022-08-20T09:10:19;22.10;75.90
70074;DHT22;57445;51.058;3.698;2022-08-20T09:12:52;22.20;72.90
70074;DHT22;57445;51.058;3.698;2022-08-20T09:15:20;22.20;71.50
70074;DHT22;57445;51.058;3.698;2022-08-20T09:17:49;22.30;71.40
70074;DHT22;57445;51.058;3.698;2022-08-20T09:20:17;22.30;72.50
70074;DHT22;57445;51.058;3.698;2022-08-20T09:22:45;22.30;73.00
70074;DHT22;57445;51.058;3.698;2022-08-20T09:25:13;22.50;72.50
70074;DHT22;57445;51.058;3.698;2022-08-20T09:27:41;22.60;71.40
70074;DHT22;57445;51.058;3.698;2022-08-20T09:30:10;23.00;70.50
70074;DHT22;57445;51.058;3.698;2022-08-20T09:32:42;22.90;70.00
70074;DHT22;57445;51.058;3.698;2022-08-20T09:35:16;22.90;70.90
70074;DHT22;57445;51.058;3.698;2022-08-20T09:37:44;22.70;71.30
70074;DHT22;57445;51.058;3.698;2022-08-20T09:40:12;22.80;69.40
70074;DHT22;57445;51.058;3.698;2022-08-20T09:42:40;22.50;69.10
70074;DHT22;57445;51.058;3.698;2022-08-20T09:45:09;22.30;69.70
70074;DHT22;57445;51.058;3.698;2022-08-20T09:47:37;22.50;68.90
70074;DHT22;57445;51.058;3.698;2022-08-20T09:50:09;22.60;67.70
70074;DHT22;57445;51.058;3.698;2022-08-20T09:52:42;22.60;65.80
70074;DHT22;57445;51.058;3.698;2022-08-20T09:55:19;22.70;63.60
70074;DHT22;57445;51.058;3.698;2022-08-20T09:57:49;23.00;64.00
70074;DHT22;57445;51.058;3.698;2022-08-20T10:00:18;23.00;63.50
70074;DHT22;57445;51.058;3.698;2022-08-20T10:02:47;23.20;65.50
70074;DHT22;57445;51.058;3.698;2022-08-20T10:05:16;23.10;63.10
70074;DHT22;57445;51.058;3.698;2022-08-20T10:07:45;22.60;64.20
70074;DHT22;57445;51.058;3.698;2022-08-20T10:10:14;22.60;64.80
70074;DHT22;57445;51.058;3.698;2022-08-20T10:12:46;22.50;64.20
70074;DHT22;57445;51.058;3.698;2022-08-20T10:15:18;22.80;63.90
70074;DHT22;57445;51.058;3.698;2022-08-20T10:17:46;22.80;63.90
70074;DHT22;57445;51.058;3.698;2022-08-20T10:20:14;22.80;64.10
70074;DHT22;57445;51.058;3.698;2022-08-20T10:22:49;23.20;62.80
70074;DHT22;57445;51.058;3.698;2022-08-20T10:25:17;23.20;62.40
70074;DHT22;57445;51.058;3.698;2022-08-20T10:27:44;23.10;63.70
70074;DHT22;57445;51.058;3.698;2022-08-20T10:30:17;23.20;63.10
70074;DHT22;57445;51.058;3.698;2022-08-20T10:32:44;23.20;61.00
70074;DHT22;57445;51.058;3.698;2022-08-20T10:35:17;23.40;61.10
70074;DHT22;57445;51.058;3.698;2022-08-20T10:37:44;24.20;60.60
70074;DHT22;57445;51.058;3.698;2022-08-20T10:40:13;24.30;59.70
70074;DHT22;57445;51.058;3.698;2022-08-20T10:42:46;24.30;60.60
70074;DHT22;57445;51.058;3.698;2022-08-20T10:45:15;24.20;60.40
70074;DHT22;57445;51.058;3.698;2022-08-20T10:47:43;23.70;63.70
70074;DHT22;57445;51.058;3.698;2022-08-20T10:50:15;23.00;65.90
70074;DHT22;57445;51.058;3.698;2022-08-20T10:52:45;22.70;66.60
70074;DHT22;57445;51.058;3.698;2022-08-20T10:55:14;22.70;68.00
70074;DHT22;57445;51.058;3.698;2022-08-20T10:57:43;22.70;66.40
70074;DHT22;57445;51.058;3.698;2022-08-20T11:00:17;22.80;64.60
70074;DHT22;57445;51.058;3.698;2022-08-20T11:02:49;22.70;64.40
70074;DHT22;57445;51.058;3.698;2022-08-20T11:05:17;22.60;65.60
70074;DHT22;57445;51.058;3.698;2022-08-20T11:07:44;22.70;64.50
70074;DHT22;57445;51.058;3.698;2022-08-20T11:10:18;22.80;63.90
70074;DHT22;57445;51.058;3.698;2022-08-20T11:12:50;22.90;64.60
70074;DHT22;57445;51.058;3.698;2022-08-20T11:15:22;23.10;64.60
70074;DHT22;57445;51.058;3.698;2022-08-20T11:17:50;22.90;63.60
70074;DHT22;57445;51.058;3.698;2022-08-20T11:20:19;22.90;64.50
70074;DHT22;57445;51.058;3.698;2022-08-20T11:22:53;23.20;63.20
70074;DHT22;57445;51.058;3.698;2022-08-20T11:25:27;23.30;63.30
70074;DHT22;57445;51.058;3.698;2022-08-20T11:27:59;23.20;63.70
70074;DHT22;57445;51.058;3.698;2022-08-20T11:30:35;23.40;63.20
70074;DHT22;57445;51.058;3.698;2022-08-20T11:33:07;23.30;63.00
70074;DHT22;57445;51.058;3.698;2022-08-20T11:35:35;23.30;62.50
70074;DHT22;57445;51.058;3.698;2022-08-20T11:38:07;23.40;61.80
70074;DHT22;57445;51.058;3.698;2022-08-20T11:40:36;23.90;61.60
70074;DHT22;57445;51.058;3.698;2022-08-20T11:43:09;24.20;60.80
70074;DHT22;57445;51.058;3.698;2022-08-20T11:45:43;24.20;60.80
70074;DHT22;57445;51.058;3.698;2022-08-20T11:48:11;23.90;61.80
70074;DHT22;57445;51.058;3.698;2022-08-20T11:50:43;23.90;61.20
70074;DHT22;57445;51.058;3.698;2022-08-20T11:53:16;24.20;60.30
70074;DHT22;57445;51.058;3.698;2022-08-20T11:55:49;24.30;58.80
70074;DHT22;57445;51.058;3.698;2022-08-20T11:58:17;24.30;58.70
70074;DHT22;57445;51.058;3.698;2022-08-20T12:00:49;24.00;59.80
70074;DHT22;57445;51.058;3.698;2022-08-20T12:03:17;23.60;59.90
70074;DHT22;57445;51.058;3.698;2022-08-20T12:05:49;23.80;60.20
70074;DHT22;57445;51.058;3.698;2022-08-20T12:08:21;23.90;59.90
70074;DHT22;57445;51.058;3.698;2022-08-20T12:10:59;24.10;60.00
70074;DHT22;57445;51.058;3.698;2022-08-20T12:13:33;24.00;60.10
70074;DHT22;57445;51.058;3.698;2022-08-20T12:16:06;24.10;58.50
70074;DHT22;57445;51.058;3.698;2022-08-20T12:18:38;24.10;59.00
70074;DHT22;57445;51.058;3.698;2022-08-20T12:21:10;24.00;58.30
70074;DHT22;57445;51.058;3.698;2022-08-20T12:23:42;24.40;58.00
70074;DHT22;57445;51.058;3.698;2022-08-20T12:26:16;24.80;57.10
70074;DHT22;57445;51.058;3.698;2022-08-20T12:28:44;24.70;57.50
70074;DHT22;57445;51.058;3.698;2022-08-20T12:31:11;24.40;58.00
70074;DHT22;57445;51.058;3.698;2022-08-20T12:33:43;24.40;58.10
70074;DHT22;57445;51.058;3.698;2022-08-20T12:36:15;24.50;58.30
70074;DHT22;57445;51.058;3.698;2022-08-20T12:38:43;24.50;56.80
70074;DHT22;57445;51.058;3.698;2022-08-20T12:41:10;24.50;57.00
70074;DHT22;57445;51.058;3.698;2022-08-20T12:43:44;24.40;58.20
70074;DHT22;57445;51.058;3.698;2022-08-20T12:46:16;24.50;57.70
70074;DHT22;57445;51.058;3.698;2022-08-20T12:48:48;24.50;57.90
70074;DHT22;57445;51.058;3.698;2022-08-20T12:51:16;24.80;55.90
70074;DHT22;57445;51.058;3.698;2022-08-20T12:53:48;25.00;56.50
70074;DHT22;57445;51.058;3.698;2022-08-20T12:56:20;25.10;55.80
70074;DHT22;57445;51.058;3.698;2022-08-20T12:58:49;24.60;57.50
70074;DHT22;57445;51.058;3.698;2022-08-20T13:01:16;24.30;57.10
70074;DHT22;57445;51.058;3.698;2022-08-20T13:03:44;24.10;57.70
70074;DHT22;57445;51.058;3.698;2022-08-20T13:06:16;24.40;57.10
70074;DHT22;57445;51.058;3.698;2022-08-20T13:08:48;24.50;56.30
70074;DHT22;57445;51.058;3.698;2022-08-20T13:11:20;24.50;56.70
70074;DHT22;57445;51.058;3.698;2022-08-20T13:13:54;24.50;55.30
70074;DHT22;57445;51.058;3.698;2022-08-20T13:16:26;24.80;55.10
70074;DHT22;57445;51.058;3.698;2022-08-20T13:18:53;25.00;55.20
70074;DHT22;57445;51.058;3.698;2022-08-20T13:21:25;25.30;54.30
70074;DHT22;57445;51.058;3.698;2022-08-20T13:23:57;25.60;53.60
70074;DHT22;57445;51.058;3.698;2022-08-20T13:26:31;25.60;54.00
70074;DHT22;57445;51.058;3.698;2022-08-20T13:29:04;25.60;54.20
70074;DHT22;57445;51.058;3.698;2022-08-20T13:31:32;25.30;54.60
70074;DHT22;57445;51.058;3.698;2022-08-20T13:34:04;24.80;55.10
70074;DHT22;57445;51.058;3.698;2022-08-20T13:36:36;24.60;55.50
70074;DHT22;57445;51.058;3.698;2022-08-20T13:39:09;24.50;55.90
70074;DHT22;57445;51.058;3.698;2022-08-20T13:41:36;24.60;55.50
70074;DHT22;57445;51.058;3.698;2022-08-20T13:44:09;25.00;54.80
70074;DHT22;57445;51.058;3.698;2022-08-20T13:46:37;25.30;54.40
70074;DHT22;57445;51.058;3.698;2022-08-20T13:49:05;25.20;54.60
70074;DHT22;57445;51.058;3.698;2022-08-20T13:51:37;24.90;54.80
70074;DHT22;57445;51.058;3.698;2022-08-20T13:54:09;24.90;54.80
70074;DHT22;57445;51.058;3.698;2022-08-20T13:56:41;25.00;54.80
70074;DHT22;57445;51.058;3.698;2022-08-20T13:59:10;25.30;54.90
70074;DHT22;57445;51.058;3.698;2022-08-20T14:01:42;25.20;54.80
70074;DHT22;57445;51.058;3.698;2022-08-20T14:04:14;25.10;54.90
70074;DHT22;57445;51.058;3.698;2022-08-20T14:06:46;24.90;54.80
70074;DHT22;57445;51.058;3.698;2022-08-20T14:09:14;24.90;54.50
70074;DHT22;57445;51.058;3.698;2022-08-20T14:11:46;24.90;54.20
70074;DHT22;57445;51.058;3.698;2022-08-20T14:14:19;24.70;54.20
70074;DHT22;57445;51.058;3.698;2022-08-20T14:16:47;24.60;54.30
70074;DHT22;57445;51.058;3.698;2022-08-20T14:19:19;24.70;54.80
70074;DHT22;57445;51.058;3.698;2022-08-20T14:21:47;25.00;54.20
70074;DHT22;57445;51.058;3.698;2022-08-20T14:24:14;25.60;52.80
70074;DHT22;57445;51.058;3.698;2022-08-20T14:26:46;25.60;52.50
70074;DHT22;57445;51.058;3.698;2022-08-20T14:29:20;25.50;53.10
70074;DHT22;57445;51.058;3.698;2022-08-20T14:31:49;25.20;54.00
70074;DHT22;57445;51.058;3.698;2022-08-20T14:34:21;25.10;53.10
70074;DHT22;57445;51.058;3.698;2022-08-20T14:36:53;25.00;54.00
70074;DHT22;57445;51.058;3.698;2022-08-20T14:39:22;25.10;54.70
70074;DHT22;57445;51.058;3.698;2022-08-20T14:41:54;24.90;54.60
70074;DHT22;57445;51.058;3.698;2022-08-20T14:44:23;25.10;54.00
70074;DHT22;57445;51.058;3.698;2022-08-20T14:46:55;25.20;53.20
70074;DHT22;57445;51.058;3.698;2022-08-20T14:49:23;25.10;53.80
70074;DHT22;57445;51.058;3.698;2022-08-20T14:51:55;24.60;53.80
70074;DHT22;57445;51.058;3.698;2022-08-20T14:54:27;24.70;54.00
70074;DHT22;57445;51.058;3.698;2022-08-20T14:56:56;24.90;53.40
70074;DHT22;57445;51.058;3.698;2022-08-20T14:59:30;24.80;53.60
70074;DHT22;57445;51.058;3.698;2022-08-20T15:02:03;24.60;54.00
70074;DHT22;57445;51.058;3.698;2022-08-20T15:04:36;24.70;53.70
70074;DHT22;57445;51.058;3.698;2022-08-20T15:07:05;25.30;52.90
70074;DHT22;57445;51.058;3.698;2022-08-20T15:09:35;26.00;51.30
70074;DHT22;57445;51.058;3.698;2022-08-20T15:12:07;26.20;50.90
70074;DHT22;57445;51.058;3.698;2022-08-20T15:14:41;25.90;50.80
70074;DHT22;57445;51.058;3.698;2022-08-20T15:17:17;25.30;52.30
70074;DHT22;57445;51.058;3.698;2022-08-20T15:19:46;25.10;52.50
70074;DHT22;57445;51.058;3.698;2022-08-20T15:22:18;25.20;52.70
70074;DHT22;57445;51.058;3.698;2022-08-20T15:24:51;24.90;52.60
70074;DHT22;57445;51.058;3.698;2022-08-20T15:27:20;24.50;53.80
70074;DHT22;57445;51.058;3.698;2022-08-20T15:29:50;24.70;54.00
70074;DHT22;57445;51.058;3.698;2022-08-20T15:32:18;24.70;54.10
70074;DHT22;57445;51.058;3.698;2022-08-20T15:34:50;24.70;54.40
70074;DHT22;57445;51.058;3.698;2022-08-20T15:37:21;25.00;54.20
70074;DHT22;57445;51.058;3.698;2022-08-20T15:39:54;25.00;54.10
70074;DHT22;57445;51.058;3.698;2022-08-20T15:42:23;25.00;53.50
70074;DHT22;57445;51.058;3.698;2022-08-20T15:44:56;25.00;53.50
70074;DHT22;57445;51.058;3.698;2022-08-20T15:47:30;24.90;53.40
70074;DHT22;57445;51.058;3.698;2022-08-20T15:50:06;25.10;53.40
70074;DHT22;57445;51.058;3.698;2022-08-20T15:52:41;24.80;54.20